sensor_id;sensor_type;location;lat;lon;timestamp;pressure;altitude;pressure_sealevel;temperature;humidity
163;BME280;3946;48.958;8.284;2024-02-15T00:02:35;100982.16;;;11.14;100.00
163;BME280;3946;48.958;8.284;2024-02-15T00:05:20;100972.72;;;10.98;100.00
163;BME280;3946;48.958;8.284;2024-02-15T00:08:06;100966.00;;;11.09;100.00
163;BME280;3946;48.958;8.284;2024-02-15T00:10:51;100963.31;;;11.11;100.00
163;BME280;3946;48.958;8.284;2024-02-15T00:13:37;100963.25;;;10.97;100.00
163;BME280;3946;48.958;8.284;2024-02-15T00:16:24;100965.75;;;10.98;100.00
163;BME280;3946;48.958;8.284;2024-02-15T00:19:11;100961.25;;;10.86;100.00
163;BME280;3946;48.958;8.284;2024-02-15T00:21:57;100968.53;;;10.79;100.00
163;BME280;3946;48.958;8.284;2024-02-15T00:24:42;100962.75;;;10.74;100.00
163;BME280;3946;48.958;8.284;2024-02-15T00:27:29;100965.34;;;10.74;100.00
163;BME280;3946;48.958;8.284;2024-02-15T00:30:17;100961.06;;;10.73;100.00
163;BME280;3946;48.958;8.284;2024-02-15T00:33:04;100967.78;;;10.62;100.00
163;BME280;3946;48.958;8.284;2024-02-15T00:35:49;100968.50;;;10.48;100.00
163;BME280;3946;48.958;8.284;2024-02-15T00:38:35;100975.28;;;10.35;100.00
163;BME280;3946;48.958;8.284;2024-02-15T00:41:21;100970.00;;;10.36;100.00
163;BME280;3946;48.958;8.284;2024-02-15T00:44:06;100973.03;;;10.60;100.00
163;BME280;3946;48.958;8.284;2024-02-15T00:46:52;100964.00;;;10.51;100.00
163;BME280;3946;48.958;8.284;2024-02-15T00:49:38;100970.25;;;10.32;100.00
163;BME280;3946;48.958;8.284;2024-02-15T00:52:24;100972.22;;;10.27;100.00
163;BME280;3946;48.958;8.284;2024-02-15T00:55:09;100968.97;;;10.23;100.00
163;BME280;3946;48.958;8.284;2024-02-15T00:57:55;100961.03;;;10.09;100.00
163;BME280;3946;48.958;8.284;2024-02-15T01:00:40;100972.13;;;9.95;100.00
163;BME280;3946;48.958;8.284;2024-02-15T01:03:25;100967.00;;;9.94;100.00
163;BME280;3946;48.958;8.284;2024-02-15T01:06:12;100960.78;;;9.80;100.00
163;BME280;3946;48.958;8.284;2024-02-15T01:08:57;100954.09;;;9.59;100.00
163;BME280;3946;48.958;8.284;2024-02-15T01:11:45;100966.66;;;9.50;100.00
163;BME280;3946;48.958;8.284;2024-02-15T01:14:30;100959.13;;;9.62;100.00
163;BME280;3946;48.958;8.284;2024-02-15T01:17:15;100964.63;;;9.56;100.00
163;BME280;3946;48.958;8.284;2024-02-15T01:20:00;100964.06;;;9.67;100.00
163;BME280;3946;48.958;8.284;2024-02-15T01:22:47;100970.63;;;9.74;100.00
163;BME280;3946;48.958;8.284;2024-02-15T01:25:33;100981.03;;;9.90;100.00
163;BME280;3946;48.958;8.284;2024-02-15T01:28:19;100975.94;;;9.88;100.00
163;BME280;3946;48.958;8.284;2024-02-15T01:31:05;100979.03;;;9.95;100.00
163;BME280;3946;48.958;8.284;2024-02-15T01:33:50;100980.06;;;10.08;100.00
163;BME280;3946;48.958;8.284;2024-02-15T01:36:35;100973.09;;;10.43;100.00
163;BME280;3946;48.958;8.284;2024-02-15T01:39:22;100963.19;;;10.67;100.00
163;BME280;3946;48.958;8.284;2024-02-15T01:42:07;100965.59;;;10.54;100.00
163;BME280;3946;48.958;8.284;2024-02-15T01:44:52;100958.38;;;10.43;100.00
163;BME280;3946;48.958;8.284;2024-02-15T01:47:38;100957.81;;;10.38;100.00
163;BME280;3946;48.958;8.284;2024-02-15T01:50:25;100958.13;;;10.32;100.00
163;BME280;3946;48.958;8.284;2024-02-15T01:53:12;100961.78;;;10.28;100.00
163;BME280;3946;48.958;8.284;2024-02-15T01:55:59;100953.19;;;10.28;100.00
163;BME280;3946;48.958;8.284;2024-02-15T01:58:45;100958.22;;;10.31;100.00
163;BME280;3946;48.958;8.284;2024-02-15T02:01:31;100944.16;;;10.19;100.00
163;BME280;3946;48.958;8.284;2024-02-15T02:04:17;100951.00;;;10.20;100.00
163;BME280;3946;48.958;8.284;2024-02-15T02:07:03;100957.88;;;10.21;100.00
163;BME280;3946;48.958;8.284;2024-02-15T02:09:48;100952.69;;;10.21;100.00
163;BME280;3946;48.958;8.284;2024-02-15T02:12:35;100947.16;;;10.27;100.00
163;BME280;3946;48.958;8.284;2024-02-15T02:15:20;100955.13;;;10.40;100.00
163;BME280;3946;48.958;8.284;2024-02-15T02:18:06;100947.63;;;10.35;100.00
163;BME280;3946;48.958;8.284;2024-02-15T02:20:52;100948.28;;;10.39;100.00
163;BME280;3946;48.958;8.284;2024-02-15T02:23:38;100943.50;;;10.31;100.00
163;BME280;3946;48.958;8.284;2024-02-15T02:26:25;100934.59;;;10.52;100.00
163;BME280;3946;48.958;8.284;2024-02-15T02:29:10;100928.56;;;10.68;100.00
163;BME280;3946;48.958;8.284;2024-02-15T02:31:57;100940.69;;;10.51;100.00
163;BME280;3946;48.958;8.284;2024-02-15T02:34:42;100930.66;;;10.45;100.00
163;BME280;3946;48.958;8.284;2024-02-15T02:37:28;100933.84;;;10.66;100.00
163;BME280;3946;48.958;8.284;2024-02-15T02:40:13;100924.31;;;10.51;100.00
163;BME280;3946;48.958;8.284;2024-02-15T02:43:00;100918.22;;;10.52;100.00
163;BME280;3946;48.958;8.284;2024-02-15T02:45:45;100936.00;;;10.58;100.00
163;BME280;3946;48.958;8.284;2024-02-15T02:48:30;100927.06;;;10.48;100.00
163;BME280;3946;48.958;8.284;2024-02-15T02:51:16;100934.00;;;10.47;100.00
163;BME280;3946;48.958;8.284;2024-02-15T02:54:01;100932.00;;;10.52;100.00
163;BME280;3946;48.958;8.284;2024-02-15T02:56:50;100922.78;;;10.47;100.00
163;BME280;3946;48.958;8.284;2024-02-15T02:59:36;100907.66;;;10.39;100.00
163;BME280;3946;48.958;8.284;2024-02-15T03:02:23;100929.13;;;10.73;100.00
163;BME280;3946;48.958;8.284;2024-02-15T03:05:09;100931.56;;;10.44;100.00
163;BME280;3946;48.958;8.284;2024-02-15T03:07:55;100926.06;;;10.50;100.00
163;BME280;3946;48.958;8.284;2024-02-15T03:10:41;100942.59;;;10.48;100.00
163;BME280;3946;48.958;8.284;2024-02-15T03:13:26;100939.44;;;10.59;100.00
163;BME280;3946;48.958;8.284;2024-02-15T03:16:13;100938.25;;;10.48;100.00
163;BME280;3946;48.958;8.284;2024-02-15T03:19:00;100945.59;;;10.56;100.00
163;BME280;3946;48.958;8.284;2024-02-15T03:21:47;100944.44;;;10.46;100.00
163;BME280;3946;48.958;8.284;2024-02-15T03:24:32;100936.06;;;10.41;100.00
163;BME280;3946;48.958;8.284;2024-02-15T03:27:17;100939.09;;;10.49;100.00
163;BME280;3946;48.958;8.284;2024-02-15T03:30:07;100936.50;;;10.96;100.00
163;BME280;3946;48.958;8.284;2024-02-15T03:32:55;100928.63;;;10.98;100.00
163;BME280;3946;48.958;8.284;2024-02-15T03:35:41;100925.22;;;10.81;100.00
163;BME280;3946;48.958;8.284;2024-02-15T03:38:26;100922.88;;;10.77;100.00
163;BME280;3946;48.958;8.284;2024-02-15T03:41:13;100922.63;;;10.66;100.00
163;BME280;3946;48.958;8.284;2024-02-15T03:43:58;100922.56;;;10.67;100.00
163;BME280;3946;48.958;8.284;2024-02-15T03:46:44;100932.41;;;10.61;100.00
163;BME280;3946;48.958;8.284;2024-02-15T03:49:36;100933.69;;;10.54;100.00
163;BME280;3946;48.958;8.284;2024-02-15T03:52:21;100931.41;;;10.47;100.00
163;BME280;3946;48.958;8.284;2024-02-15T03:55:07;100935.59;;;10.66;100.00
163;BME280;3946;48.958;8.284;2024-02-15T03:57:52;100936.34;;;10.68;100.00
163;BME280;3946;48.958;8.284;2024-02-15T04:00:39;100930.34;;;10.67;100.00
163;BME280;3946;48.958;8.284;2024-02-15T04:03:24;100928.81;;;10.63;100.00
163;BME280;3946;48.958;8.284;2024-02-15T04:06:11;100922.72;;;10.64;100.00
163;BME280;3946;48.958;8.284;2024-02-15T04:08:56;100937.84;;;10.72;100.00
163;BME280;3946;48.958;8.284;2024-02-15T04:11:42;100933.41;;;10.58;100.00
163;BME280;3946;48.958;8.284;2024-02-15T04:14:27;100923.63;;;10.47;100.00
163;BME280;3946;48.958;8.284;2024-02-15T04:17:12;100928.66;;;10.50;100.00
163;BME280;3946;48.958;8.284;2024-02-15T04:20:00;100922.13;;;10.59;100.00
163;BME280;3946;48.958;8.284;2024-02-15T04:22:49;100926.81;;;10.68;100.00
163;BME280;3946;48.958;8.284;2024-02-15T04:25:34;100934.53;;;10.70;100.00
163;BME280;3946;48.958;8.284;2024-02-15T04:28:20;100934.16;;;10.60;100.00
163;BME280;3946;48.958;8.284;2024-02-15T04:31:05;100923.13;;;10.57;100.00
163;BME280;3946;48.958;8.284;2024-02-15T04:33:52;100918.38;;;10.49;100.00
163;BME280;3946;48.958;8.284;2024-02-15T04:36:38;100920.06;;;10.50;100.00
163;BME280;3946;48.958;8.284;2024-02-15T04:39:24;100917.28;;;10.53;100.00
163;BME280;3946;48.958;8.284;2024-02-15T04:42:13;100921.22;;;10.60;100.00
163;BME280;3946;48.958;8.284;2024-02-15T04:45:00;100912.69;;;10.58;100.00
163;BME280;3946;48.958;8.284;2024-02-15T04:47:45;100914.19;;;10.62;100.00
163;BME280;3946;48.958;8.284;2024-02-15T04:50:33;100914.28;;;10.61;100.00
163;BME280;3946;48.958;8.284;2024-02-15T04:53:18;100914.50;;;10.56;100.00
163;BME280;3946;48.958;8.284;2024-02-15T04:56:05;100906.56;;;10.59;100.00
163;BME280;3946;48.958;8.284;2024-02-15T04:58:55;100903.44;;;10.54;100.00
163;BME280;3946;48.958;8.284;2024-02-15T05:01:40;100907.78;;;10.54;100.00
163;BME280;3946;48.958;8.284;2024-02-15T05:04:26;100899.47;;;10.47;100.00
163;BME280;3946;48.958;8.284;2024-02-15T05:07:11;100905.09;;;10.55;100.00
163;BME280;3946;48.958;8.284;2024-02-15T05:10:00;100901.41;;;10.59;100.00
163;BME280;3946;48.958;8.284;2024-02-15T05:12:51;100893.78;;;10.56;100.00
163;BME280;3946;48.958;8.284;2024-02-15T05:15:37;100901.75;;;10.69;100.00
163;BME280;3946;48.958;8.284;2024-02-15T05:18:23;100891.88;;;10.60;100.00
163;BME280;3946;48.958;8.284;2024-02-15T05:21:09;100890.28;;;10.57;100.00
163;BME280;3946;48.958;8.284;2024-02-15T05:23:54;100896.06;;;10.46;100.00
163;BME280;3946;48.958;8.284;2024-02-15T05:26:42;100895.91;;;10.49;100.00
163;BME280;3946;48.958;8.284;2024-02-15T05:29:28;100908.09;;;10.47;100.00
163;BME280;3946;48.958;8.284;2024-02-15T05:32:18;100908.25;;;10.44;100.00
163;BME280;3946;48.958;8.284;2024-02-15T05:35:04;100906.56;;;10.43;100.00
163;BME280;3946;48.958;8.284;2024-02-15T05:37:52;100906.66;;;10.42;100.00
163;BME280;3946;48.958;8.284;2024-02-15T05:40:37;100908.00;;;10.49;100.00
163;BME280;3946;48.958;8.284;2024-02-15T05:43:23;100902.75;;;10.35;100.00
163;BME280;3946;48.958;8.284;2024-02-15T05:46:10;100912.34;;;10.33;100.00
163;BME280;3946;48.958;8.284;2024-02-15T05:48:56;100913.94;;;10.35;100.00
163;BME280;3946;48.958;8.284;2024-02-15T05:51:41;100891.53;;;10.34;100.00
163;BME280;3946;48.958;8.284;2024-02-15T05:54:27;100895.13;;;10.32;100.00
163;BME280;3946;48.958;8.284;2024-02-15T05:57:12;100892.47;;;10.49;100.00
163;BME280;3946;48.958;8.284;2024-02-15T05:59:57;100889.94;;;10.63;100.00
163;BME280;3946;48.958;8.284;2024-02-15T06:02:50;100889.28;;;10.44;100.00
163;BME280;3946;48.958;8.284;2024-02-15T06:05:36;100888.78;;;10.37;100.00
163;BME280;3946;48.958;8.284;2024-02-15T06:08:22;100884.44;;;10.38;100.00
163;BME280;3946;48.958;8.284;2024-02-15T06:11:07;100880.59;;;10.29;100.00
163;BME280;3946;48.958;8.284;2024-02-15T06:13:54;100876.09;;;10.33;100.00
163;BME280;3946;48.958;8.284;2024-02-15T06:16:42;100883.19;;;10.29;100.00
163;BME280;3946;48.958;8.284;2024-02-15T06:19:29;100879.06;;;10.25;100.00
163;BME280;3946;48.958;8.284;2024-02-15T06:22:16;100868.47;;;10.30;100.00
163;BME280;3946;48.958;8.284;2024-02-15T06:25:01;100858.84;;;10.16;100.00
163;BME280;3946;48.958;8.284;2024-02-15T06:27:47;100867.72;;;10.28;100.00
163;BME280;3946;48.958;8.284;2024-02-15T06:30:35;100858.84;;;10.16;100.00
163;BME280;3946;48.958;8.284;2024-02-15T06:33:38;100863.91;;;10.02;100.00
163;BME280;3946;48.958;8.284;2024-02-15T06:36:47;100863.28;;;9.81;100.00
163;BME280;3946;48.958;8.284;2024-02-15T06:39:50;100861.34;;;9.69;100.00
163;BME280;3946;48.958;8.284;2024-02-15T06:42:35;100858.84;;;9.67;100.00
163;BME280;3946;48.958;8.284;2024-02-15T06:45:21;100857.19;;;9.49;100.00
163;BME280;3946;48.958;8.284;2024-02-15T06:48:07;100863.81;;;9.37;100.00
163;BME280;3946;48.958;8.284;2024-02-15T06:50:52;100863.22;;;9.32;100.00
163;BME280;3946;48.958;8.284;2024-02-15T06:53:39;100866.94;;;9.27;100.00
163;BME280;3946;48.958;8.284;2024-02-15T06:56:24;100860.34;;;9.21;100.00
163;BME280;3946;48.958;8.284;2024-02-15T06:59:09;100857.28;;;9.13;100.00
163;BME280;3946;48.958;8.284;2024-02-15T07:01:58;100865.19;;;9.27;100.00
163;BME280;3946;48.958;8.284;2024-02-15T07:04:44;100864.66;;;9.21;100.00
163;BME280;3946;48.958;8.284;2024-02-15T07:07:30;100870.75;;;9.20;100.00
163;BME280;3946;48.958;8.284;2024-02-15T07:10:17;100855.25;;;9.20;100.00
163;BME280;3946;48.958;8.284;2024-02-15T07:13:02;100847.09;;;9.27;100.00
163;BME280;3946;48.958;8.284;2024-02-15T07:15:48;100858.19;;;9.29;100.00
163;BME280;3946;48.958;8.284;2024-02-15T07:18:33;100854.69;;;9.47;100.00
163;BME280;3946;48.958;8.284;2024-02-15T07:21:19;100849.44;;;9.49;100.00
163;BME280;3946;48.958;8.284;2024-02-15T07:24:09;100843.03;;;9.56;100.00
163;BME280;3946;48.958;8.284;2024-02-15T07:26:56;100843.38;;;9.66;100.00
163;BME280;3946;48.958;8.284;2024-02-15T07:29:41;100849.06;;;9.57;100.00
163;BME280;3946;48.958;8.284;2024-02-15T07:32:27;100839.13;;;9.65;100.00
163;BME280;3946;48.958;8.284;2024-02-15T07:35:12;100833.75;;;9.85;100.00
163;BME280;3946;48.958;8.284;2024-02-15T07:38:01;100828.75;;;9.98;100.00
163;BME280;3946;48.958;8.284;2024-02-15T07:40:49;100837.41;;;9.81;100.00
163;BME280;3946;48.958;8.284;2024-02-15T07:43:36;100834.84;;;9.97;100.00
163;BME280;3946;48.958;8.284;2024-02-15T07:46:21;100833.19;;;10.59;100.00
163;BME280;3946;48.958;8.284;2024-02-15T07:49:08;100829.59;;;10.61;100.00
163;BME280;3946;48.958;8.284;2024-02-15T07:51:53;100831.22;;;10.48;100.00
163;BME280;3946;48.958;8.284;2024-02-15T07:54:38;100837.25;;;10.33;100.00
163;BME280;3946;48.958;8.284;2024-02-15T07:57:24;100835.81;;;10.27;100.00
163;BME280;3946;48.958;8.284;2024-02-15T08:00:12;100842.25;;;10.20;100.00
163;BME280;3946;48.958;8.284;2024-02-15T08:03:00;100836.06;;;10.38;100.00
163;BME280;3946;48.958;8.284;2024-02-15T08:05:45;100833.19;;;10.59;100.00
163;BME280;3946;48.958;8.284;2024-02-15T08:08:31;100833.22;;;10.43;100.00
163;BME280;3946;48.958;8.284;2024-02-15T08:11:17;100831.81;;;10.37;100.00
163;BME280;3946;48.958;8.284;2024-02-15T08:14:03;100824.44;;;10.30;100.00
163;BME280;3946;48.958;8.284;2024-02-15T08:16:53;100828.19;;;10.24;100.00
163;BME280;3946;48.958;8.284;2024-02-15T08:19:40;100822.56;;;10.63;100.00
163;BME280;3946;48.958;8.284;2024-02-15T08:22:26;100822.13;;;10.86;100.00
163;BME280;3946;48.958;8.284;2024-02-15T08:25:14;100816.66;;;10.91;100.00
163;BME280;3946;48.958;8.284;2024-02-15T08:28:02;100813.50;;;10.86;100.00
163;BME280;3946;48.958;8.284;2024-02-15T08:30:49;100825.53;;;10.87;100.00
163;BME280;3946;48.958;8.284;2024-02-15T08:33:37;100817.06;;;10.99;100.00
163;BME280;3946;48.958;8.284;2024-02-15T08:36:23;100812.00;;;11.26;100.00
163;BME280;3946;48.958;8.284;2024-02-15T08:39:08;100808.97;;;11.48;100.00
163;BME280;3946;48.958;8.284;2024-02-15T08:41:56;100807.91;;;11.22;100.00
163;BME280;3946;48.958;8.284;2024-02-15T08:44:42;100802.78;;;11.50;100.00
163;BME280;3946;48.958;8.284;2024-02-15T08:47:28;100808.06;;;11.77;100.00
163;BME280;3946;48.958;8.284;2024-02-15T08:50:14;100797.19;;;11.99;100.00
163;BME280;3946;48.958;8.284;2024-02-15T08:53:00;100786.22;;;12.08;100.00
163;BME280;3946;48.958;8.284;2024-02-15T08:55:46;100793.69;;;12.27;100.00
163;BME280;3946;48.958;8.284;2024-02-15T08:58:31;100793.09;;;12.36;100.00
163;BME280;3946;48.958;8.284;2024-02-15T09:01:16;100794.75;;;12.64;100.00
163;BME280;3946;48.958;8.284;2024-02-15T09:04:02;100793.00;;;12.65;100.00
163;BME280;3946;48.958;8.284;2024-02-15T09:06:48;100791.75;;;12.70;100.00
163;BME280;3946;48.958;8.284;2024-02-15T09:09:34;100790.31;;;12.79;100.00
163;BME280;3946;48.958;8.284;2024-02-15T09:12:20;100793.13;;;12.76;100.00
163;BME280;3946;48.958;8.284;2024-02-15T09:15:06;100795.94;;;12.85;100.00
163;BME280;3946;48.958;8.284;2024-02-15T09:17:52;100790.25;;;13.06;100.00
163;BME280;3946;48.958;8.284;2024-02-15T09:20:38;100790.31;;;13.31;97.22
163;BME280;3946;48.958;8.284;2024-02-15T09:23:30;100791.56;;;13.25;98.08
163;BME280;3946;48.958;8.284;2024-02-15T09:26:15;100784.88;;;13.47;96.62
163;BME280;3946;48.958;8.284;2024-02-15T09:29:00;100784.66;;;13.37;97.63
163;BME280;3946;48.958;8.284;2024-02-15T09:31:46;100781.03;;;13.40;96.62
163;BME280;3946;48.958;8.284;2024-02-15T09:34:32;100772.97;;;13.68;95.99
163;BME280;3946;48.958;8.284;2024-02-15T09:37:17;100783.09;;;13.60;95.51
163;BME280;3946;48.958;8.284;2024-02-15T09:40:08;100780.81;;;13.43;97.79
163;BME280;3946;48.958;8.284;2024-02-15T09:42:54;100774.50;;;13.83;96.71
163;BME280;3946;48.958;8.284;2024-02-15T09:45:39;100758.13;;;13.94;95.27
163;BME280;3946;48.958;8.284;2024-02-15T09:48:25;100755.31;;;14.21;93.52
163;BME280;3946;48.958;8.284;2024-02-15T09:51:11;100750.88;;;14.34;92.00
163;BME280;3946;48.958;8.284;2024-02-15T09:53:57;100741.38;;;14.33;90.55
163;BME280;3946;48.958;8.284;2024-02-15T09:56:44;100737.63;;;14.61;89.71
163;BME280;3946;48.958;8.284;2024-02-15T09:59:30;100733.94;;;14.63;88.51
163;BME280;3946;48.958;8.284;2024-02-15T10:02:15;100723.25;;;14.31;89.65
163;BME280;3946;48.958;8.284;2024-02-15T10:05:03;100730.06;;;14.80;88.36
163;BME280;3946;48.958;8.284;2024-02-15T10:07:48;100721.44;;;14.91;85.19
163;BME280;3946;48.958;8.284;2024-02-15T10:10:34;100731.50;;;14.84;85.90
163;BME280;3946;48.958;8.284;2024-02-15T10:13:22;100715.41;;;15.13;83.90
163;BME280;3946;48.958;8.284;2024-02-15T10:16:14;100709.34;;;15.34;83.32
163;BME280;3946;48.958;8.284;2024-02-15T10:19:08;100711.13;;;15.45;82.55
163;BME280;3946;48.958;8.284;2024-02-15T10:21:54;100705.44;;;15.29;83.15
163;BME280;3946;48.958;8.284;2024-02-15T10:24:41;100712.91;;;15.67;82.57
163;BME280;3946;48.958;8.284;2024-02-15T10:27:26;100699.13;;;15.76;81.20
163;BME280;3946;48.958;8.284;2024-02-15T10:30:19;100700.34;;;15.72;80.94
163;BME280;3946;48.958;8.284;2024-02-15T10:33:06;100708.94;;;15.95;80.56
163;BME280;3946;48.958;8.284;2024-02-15T10:36:04;100703.25;;;15.90;80.75
163;BME280;3946;48.958;8.284;2024-02-15T10:38:50;100695.78;;;16.17;78.74
163;BME280;3946;48.958;8.284;2024-02-15T10:41:35;100694.25;;;16.15;79.08
163;BME280;3946;48.958;8.284;2024-02-15T10:44:22;100692.84;;;16.10;78.52
163;BME280;3946;48.958;8.284;2024-02-15T10:47:09;100693.50;;;16.24;76.23
163;BME280;3946;48.958;8.284;2024-02-15T10:49:54;100692.63;;;15.70;79.36
163;BME280;3946;48.958;8.284;2024-02-15T10:52:48;100686.94;;;15.97;79.27
163;BME280;3946;48.958;8.284;2024-02-15T10:55:38;100674.22;;;16.25;77.37
163;BME280;3946;48.958;8.284;2024-02-15T10:58:31;100680.63;;;16.32;75.70
163;BME280;3946;48.958;8.284;2024-02-15T11:01:21;100672.31;;;16.27;75.12
163;BME280;3946;48.958;8.284;2024-02-15T11:04:12;100684.78;;;16.34;75.92
163;BME280;3946;48.958;8.284;2024-02-15T11:07:00;100674.22;;;16.25;76.42
163;BME280;3946;48.958;8.284;2024-02-15T11:09:46;100670.66;;;16.26;74.31
163;BME280;3946;48.958;8.284;2024-02-15T11:12:31;100667.00;;;16.49;74.89
163;BME280;3946;48.958;8.284;2024-02-15T11:15:41;100663.88;;;16.55;75.43
163;BME280;3946;48.958;8.284;2024-02-15T11:18:50;100649.91;;;16.66;73.62
163;BME280;3946;48.958;8.284;2024-02-15T11:22:07;100647.91;;;16.79;73.73
163;BME280;3946;48.958;8.284;2024-02-15T11:24:54;100639.09;;;16.80;72.61
163;BME280;3946;48.958;8.284;2024-02-15T11:27:40;100649.25;;;16.53;73.56
163;BME280;3946;48.958;8.284;2024-02-15T11:30:31;100637.00;;;16.53;73.22
163;BME280;3946;48.958;8.284;2024-02-15T11:33:28;100639.19;;;16.69;73.42
163;BME280;3946;48.958;8.284;2024-02-15T11:36:14;100636.34;;;16.82;73.16
163;BME280;3946;48.958;8.284;2024-02-15T11:39:41;100621.94;;;16.87;71.99
163;BME280;3946;48.958;8.284;2024-02-15T11:42:28;100609.75;;;16.76;71.32
163;BME280;3946;48.958;8.284;2024-02-15T11:45:15;100617.22;;;16.91;72.49
163;BME280;3946;48.958;8.284;2024-02-15T11:48:02;100601.28;;;16.94;71.47
163;BME280;3946;48.958;8.284;2024-02-15T11:50:47;100600.34;;;16.74;71.93
163;BME280;3946;48.958;8.284;2024-02-15T11:53:33;100600.78;;;16.69;71.82
163;BME280;3946;48.958;8.284;2024-02-15T11:56:20;100582.44;;;17.00;71.09
163;BME280;3946;48.958;8.284;2024-02-15T11:59:05;100578.22;;;17.18;70.07
163;BME280;3946;48.958;8.284;2024-02-15T12:01:51;100592.41;;;16.55;72.02
163;BME280;3946;48.958;8.284;2024-02-15T12:04:54;100580.78;;;16.99;71.19
163;BME280;3946;48.958;8.284;2024-02-15T12:08:11;100578.59;;;17.04;69.86
163;BME280;3946;48.958;8.284;2024-02-15T12:11:14;100562.50;;;17.18;68.73
163;BME280;3946;48.958;8.284;2024-02-15T12:14:19;100578.75;;;16.72;69.79
163;BME280;3946;48.958;8.284;2024-02-15T12:17:23;100569.34;;;17.09;70.16
163;BME280;3946;48.958;8.284;2024-02-15T12:20:26;100581.91;;;16.75;71.67
163;BME280;3946;48.958;8.284;2024-02-15T12:23:12;100575.97;;;17.13;71.20
163;BME280;3946;48.958;8.284;2024-02-15T12:26:02;100578.38;;;17.36;70.32
163;BME280;3946;48.958;8.284;2024-02-15T12:28:51;100557.13;;;17.29;67.73
163;BME280;3946;48.958;8.284;2024-02-15T12:31:40;100554.50;;;17.20;68.17
163;BME280;3946;48.958;8.284;2024-02-15T12:34:25;100548.25;;;17.01;68.92
163;BME280;3946;48.958;8.284;2024-02-15T12:37:10;100538.09;;;17.27;68.71
163;BME280;3946;48.958;8.284;2024-02-15T12:40:09;100529.44;;;17.56;67.57
163;BME280;3946;48.958;8.284;2024-02-15T12:42:57;100522.69;;;17.53;66.68
163;BME280;3946;48.958;8.284;2024-02-15T12:45:43;100522.81;;;17.52;68.43
163;BME280;3946;48.958;8.284;2024-02-15T12:48:30;100513.19;;;17.52;67.44
163;BME280;3946;48.958;8.284;2024-02-15T12:51:16;100513.44;;;17.59;67.19
163;BME280;3946;48.958;8.284;2024-02-15T12:54:08;100504.91;;;17.76;67.94
163;BME280;3946;48.958;8.284;2024-02-15T12:57:07;100502.13;;;17.87;67.28
163;BME280;3946;48.958;8.284;2024-02-15T12:59:52;100497.31;;;17.63;66.73
163;BME280;3946;48.958;8.284;2024-02-15T13:02:37;100508.63;;;17.35;69.21
163;BME280;3946;48.958;8.284;2024-02-15T13:05:25;100502.13;;;17.20;69.58
163;BME280;3946;48.958;8.284;2024-02-15T13:08:10;100467.78;;;17.61;68.13
163;BME280;3946;48.958;8.284;2024-02-15T13:10:57;100489.97;;;17.57;68.15
163;BME280;3946;48.958;8.284;2024-02-15T13:13:42;100475.94;;;17.77;66.68
163;BME280;3946;48.958;8.284;2024-02-15T13:16:27;100477.88;;;17.66;67.36
163;BME280;3946;48.958;8.284;2024-02-15T13:19:14;100476.47;;;17.62;67.66
163;BME280;3946;48.958;8.284;2024-02-15T13:22:01;100460.09;;;17.69;66.62
163;BME280;3946;48.958;8.284;2024-02-15T13:24:47;100458.00;;;17.44;66.68
163;BME280;3946;48.958;8.284;2024-02-15T13:27:32;100468.19;;;17.57;67.00
163;BME280;3946;48.958;8.284;2024-02-15T13:30:17;100462.41;;;17.72;68.26
163;BME280;3946;48.958;8.284;2024-02-15T13:33:05;100461.06;;;17.68;67.61
163;BME280;3946;48.958;8.284;2024-02-15T13:35:51;100449.53;;;17.98;66.65
163;BME280;3946;48.958;8.284;2024-02-15T13:38:37;100439.88;;;17.89;65.96
163;BME280;3946;48.958;8.284;2024-02-15T13:41:23;100440.94;;;18.06;66.58
163;BME280;3946;48.958;8.284;2024-02-15T13:44:08;100429.97;;;18.20;65.04
163;BME280;3946;48.958;8.284;2024-02-15T13:46:54;100436.84;;;18.31;65.63
163;BME280;3946;48.958;8.284;2024-02-15T13:49:39;100431.53;;;18.13;65.40
163;BME280;3946;48.958;8.284;2024-02-15T13:52:25;100414.16;;;18.39;65.42
163;BME280;3946;48.958;8.284;2024-02-15T13:55:14;100414.91;;;18.32;66.05
163;BME280;3946;48.958;8.284;2024-02-15T13:58:00;100420.94;;;18.05;66.53
163;BME280;3946;48.958;8.284;2024-02-15T14:00:45;100424.75;;;17.83;67.35
163;BME280;3946;48.958;8.284;2024-02-15T14:03:31;100426.91;;;17.88;67.82
163;BME280;3946;48.958;8.284;2024-02-15T14:06:17;100422.81;;;17.85;67.79
163;BME280;3946;48.958;8.284;2024-02-15T14:09:03;100413.34;;;17.65;67.23
163;BME280;3946;48.958;8.284;2024-02-15T14:11:50;100416.44;;;17.88;67.75
163;BME280;3946;48.958;8.284;2024-02-15T14:14:36;100411.72;;;17.91;66.98
163;BME280;3946;48.958;8.284;2024-02-15T14:17:24;100400.13;;;17.94;66.23
163;BME280;3946;48.958;8.284;2024-02-15T14:20:10;100410.34;;;17.97;66.91
163;BME280;3946;48.958;8.284;2024-02-15T14:22:57;100398.56;;;18.10;66.42
163;BME280;3946;48.958;8.284;2024-02-15T14:25:48;100401.31;;;18.09;66.69
163;BME280;3946;48.958;8.284;2024-02-15T14:28:35;100393.06;;;18.04;66.13
163;BME280;3946;48.958;8.284;2024-02-15T14:31:20;100387.31;;;17.91;66.87
163;BME280;3946;48.958;8.284;2024-02-15T14:34:23;100390.91;;;17.90;67.60
163;BME280;3946;48.958;8.284;2024-02-15T14:37:09;100387.84;;;17.94;67.16
163;BME280;3946;48.958;8.284;2024-02-15T14:39:55;100379.16;;;17.94;66.16
163;BME280;3946;48.958;8.284;2024-02-15T14:42:40;100371.69;;;17.99;66.37
163;BME280;3946;48.958;8.284;2024-02-15T14:45:27;100387.31;;;17.91;67.17
163;BME280;3946;48.958;8.284;2024-02-15T14:48:13;100375.41;;;17.69;67.53
163;BME280;3946;48.958;8.284;2024-02-15T14:51:01;100378.25;;;17.75;68.19
163;BME280;3946;48.958;8.284;2024-02-15T14:53:46;100380.19;;;17.83;68.00
163;BME280;3946;48.958;8.284;2024-02-15T14:56:33;100371.00;;;17.69;67.54
163;BME280;3946;48.958;8.284;2024-02-15T14:59:18;100369.75;;;17.64;67.59
163;BME280;3946;48.958;8.284;2024-02-15T15:02:05;100359.13;;;17.65;67.93
163;BME280;3946;48.958;8.284;2024-02-15T15:04:52;100358.69;;;17.70;67.48
163;BME280;3946;48.958;8.284;2024-02-15T15:08:03;100357.47;;;17.64;67.28